sensor_id;sensor_type;location;lat;lon;timestamp;pressure;altitude;pressure_sealevel;temperature;humidity
61676;BME280;47574;52.090;5.244;2023-02-20T00:01:10;102519.0;;;11.67;58.32
61676;BME280;47574;52.090;5.244;2023-02-20T00:02:48;102514.00000000001;;;11.52;58.6
61676;BME280;47574;52.090;5.244;2023-02-20T00:04:25;102503.0;;;11.7;58.11
61676;BME280;47574;52.090;5.244;2023-02-20T00:06:02;102504.0;;;11.58;58.71
61676;BME280;47574;52.090;5.244;2023-02-20T00:09:15;102497.0;;;11.57;58.59
61676;BME280;47574;52.090;5.244;2023-02-20T00:10:53;102490.00000000001;;;11.67;58.7
61676;BME280;47574;52.090;5.244;2023-02-20T00:12:29;102472.0;;;11.51;59.04
61676;BME280;47574;52.090;5.244;2023-02-20T00:15:43;102469.0;;;11.42;59.5
61676;BME280;47574;52.090;5.244;2023-02-20T00:17:20;102482.0;;;11.79;58.32
61676;BME280;47574;52.090;5.244;2023-02-20T00:18:56;102495.0;;;11.51;58.99
61676;BME280;47574;52.090;5.244;2023-02-20T00:22:11;102505.0;;;11.61;58.94
61676;BME280;47574;52.090;5.244;2023-02-20T00:23:48;102491.00000000001;;;11.97;57.92
61676;BME280;47574;52.090;5.244;2023-02-20T00:25:25;102482.0;;;11.75;58.21
61676;BME280;47574;52.090;5.244;2023-02-20T00:27:02;102481.0;;;11.92;58.06
61676;BME280;47574;52.090;5.244;2023-02-20T00:30:19;102475.0;;;12.0;57.77
61676;BME280;47574;52.090;5.244;2023-02-20T00:31:57;102477.0;;;11.75;58.41
61676;BME280;47574;52.090;5.244;2023-02-20T00:33:35;102475.0;;;11.91;58.06
61676;BME280;47574;52.090;5.244;2023-02-20T00:36:49;102471.0;;;11.74;58.55
61676;BME280;47574;52.090;5.244;2023-02-20T00:38:26;102463.00000000001;;;11.68;58.56
61676;BME280;47574;52.090;5.244;2023-02-20T00:40:05;102463.00000000001;;;11.83;58.35
61676;BME280;47574;52.090;5.244;2023-02-20T00:41:43;102465.00000000001;;;12.06;57.92
61676;BME280;47574;52.090;5.244;2023-02-20T00:44:56;102461.99999999999;;;11.92;58.01
61676;BME280;47574;52.090;5.244;2023-02-20T00:46:33;102456.0;;;11.72;58.37
61676;BME280;47574;52.090;5.244;2023-02-20T00:48:10;102455.0;;;11.63;58.89
61676;BME280;47574;52.090;5.244;2023-02-20T00:51:24;102452.0;;;11.84;58.38
61676;BME280;47574;52.090;5.244;2023-02-20T00:53:01;102454.0;;;11.83;58.25
61676;BME280;47574;52.090;5.244;2023-02-20T00:54:39;102449.0;;;11.93;58.13
61676;BME280;47574;52.090;5.244;2023-02-20T00:56:15;102454.0;;;11.73;58.48
61676;BME280;47574;52.090;5.244;2023-02-20T00:59:28;102446.0;;;11.83;58.27
61676;BME280;47574;52.090;5.244;2023-02-20T01:01:05;102443.0;;;11.87;58.22
61676;BME280;47574;52.090;5.244;2023-02-20T01:02:42;102445.0;;;11.67;58.81
61676;BME280;47574;52.090;5.244;2023-02-20T01:05:55;102440.00000000001;;;11.67;58.72
61676;BME280;47574;52.090;5.244;2023-02-20T01:07:32;102438.00000000001;;;11.63;58.94
61676;BME280;47574;52.090;5.244;2023-02-20T01:09:09;102426.0;;;11.33;59.27
61676;BME280;47574;52.090;5.244;2023-02-20T01:10:48;102425.0;;;11.23;59.85
61676;BME280;47574;52.090;5.244;2023-02-20T01:14:02;102424.0;;;10.91;60.52
61676;BME280;47574;52.090;5.244;2023-02-20T01:15:39;102413.00000000001;;;10.87;60.66
61676;BME280;47574;52.090;5.244;2023-02-20T01:17:15;102399.0;;;10.91;60.88
61676;BME280;47574;52.090;5.244;2023-02-20T01:20:29;102388.0;;;11.04;60.48
61676;BME280;47574;52.090;5.244;2023-02-20T01:22:07;102370.0;;;11.24;59.82
61676;BME280;47574;52.090;5.244;2023-02-20T01:23:44;102376.0;;;10.87;60.72
61676;BME280;47574;52.090;5.244;2023-02-20T01:26:58;102360.0;;;10.73;61.12
61676;BME280;47574;52.090;5.244;2023-02-20T01:28:34;102359.0;;;10.79;61.29
61676;BME280;47574;52.090;5.244;2023-02-20T01:30:12;102365.0;;;10.82;61.07
61676;BME280;47574;52.090;5.244;2023-02-20T01:31:50;102368.0;;;10.36;62.36
61676;BME280;47574;52.090;5.244;2023-02-20T01:35:05;102361.0;;;10.41;62.49
61676;BME280;47574;52.090;5.244;2023-02-20T01:36:46;102366.0;;;10.42;62.53
61676;BME280;47574;52.090;5.244;2023-02-20T01:38:24;102369.0;;;10.58;62.13
61676;BME280;47574;52.090;5.244;2023-02-20T01:41:39;102368.0;;;10.6;62.06
61676;BME280;47574;52.090;5.244;2023-02-20T01:43:16;102371.0;;;10.77;61.7
61676;BME280;47574;52.090;5.244;2023-02-20T01:44:52;102372.0;;;11.07;60.96
61676;BME280;47574;52.090;5.244;2023-02-20T01:50:03;102363.0;;;10.65;62.48
61676;BME280;47574;52.090;5.244;2023-02-20T01:51:45;102365.0;;;11.01;61.49
61676;BME280;47574;52.090;5.244;2023-02-20T01:53:27;102360.0;;;10.66;62.59
61676;BME280;47574;52.090;5.244;2023-02-20T01:55:10;102367.0;;;10.64;62.75
61676;BME280;47574;52.090;5.244;2023-02-20T01:56:50;102362.0;;;10.79;62.53
61676;BME280;47574;52.090;5.244;2023-02-20T02:00:16;102360.0;;;10.47;63.59
61676;BME280;47574;52.090;5.244;2023-02-20T02:01:53;102361.0;;;11.08;61.98
61676;BME280;47574;52.090;5.244;2023-02-20T02:03:33;102362.0;;;10.97;62.16
61676;BME280;47574;52.090;5.244;2023-02-20T02:06:51;102360.0;;;10.99;62.29
61676;BME280;47574;52.090;5.244;2023-02-20T02:08:29;102361.0;;;11.36;61.17
61676;BME280;47574;52.090;5.244;2023-02-20T02:10:10;102357.0;;;10.92;62.43
61676;BME280;47574;52.090;5.244;2023-02-20T02:11:49;102350.0;;;10.76;63.35
61676;BME280;47574;52.090;5.244;2023-02-20T02:15:12;102341.0;;;11.11;62.26
61676;BME280;47574;52.090;5.244;2023-02-20T02:17:00;102341.0;;;10.88;62.99
61676;BME280;47574;52.090;5.244;2023-02-20T02:18:51;102341.0;;;11.13;62.45
61676;BME280;47574;52.090;5.244;2023-02-20T02:21:24;102341.0;;;10.9;63.3
61676;BME280;47574;52.090;5.244;2023-02-20T02:23:35;102341.0;;;10.82;63.76
61676;BME280;47574;52.090;5.244;2023-02-20T02:27:21;102349.0;;;11.11;63.18
61676;BME280;47574;52.090;5.244;2023-02-20T02:30:28;102345.0;;;10.71;64.56
61676;BME280;47574;52.090;5.244;2023-02-20T02:32:31;102333.0;;;11.27;62.96
61676;BME280;47574;52.090;5.244;2023-02-20T02:34:03;102331.0;;;11.23;63.13
61676;BME280;47574;52.090;5.244;2023-02-20T02:35:05;102331.0;;;11.23;63.13
61676;BME280;47574;52.090;5.244;2023-02-20T02:35:40;102331.0;;;11.09;63.75
61676;BME280;47574;52.090;5.244;2023-02-20T02:36:50;102331.0;;;11.09;63.75
61676;BME280;47574;52.090;5.244;2023-02-20T02:38:41;102332.0;;;10.89;64.62
61676;BME280;47574;52.090;5.244;2023-02-20T02:40:26;102327.0;;;10.96;64.74
61676;BME280;47574;52.090;5.244;2023-02-20T02:42:10;102322.0;;;11.28;63.6
61676;BME280;47574;52.090;5.244;2023-02-20T02:43:58;102322.0;;;11.31;63.7
61676;BME280;47574;52.090;5.244;2023-02-20T02:45:39;102318.0;;;11.33;63.7
61676;BME280;47574;52.090;5.244;2023-02-20T02:47:24;102319.0;;;11.19;64.19
61676;BME280;47574;52.090;5.244;2023-02-20T02:50:48;102316.0;;;11.22;64.38
61676;BME280;47574;52.090;5.244;2023-02-20T02:53:00;102311.0;;;11.2;64.53
61676;BME280;47574;52.090;5.244;2023-02-20T02:54:38;102308.0;;;11.32;64.2
61676;BME280;47574;52.090;5.244;2023-02-20T02:56:32;102308.0;;;11.53;63.55
61676;BME280;47574;52.090;5.244;2023-02-20T02:58:09;102306.0;;;11.68;63.24
61676;BME280;47574;52.090;5.244;2023-02-20T02:59:52;102315.0;;;11.44;63.97
61676;BME280;47574;52.090;5.244;2023-02-20T03:03:15;102308.0;;;11.32;64.19
61676;BME280;47574;52.090;5.244;2023-02-20T03:04:57;102309.0;;;11.19;64.64
61676;BME280;47574;52.090;5.244;2023-02-20T03:06:37;102310.0;;;11.26;64.69
61676;BME280;47574;52.090;5.244;2023-02-20T03:08:25;102302.0;;;11.37;64.36
61676;BME280;47574;52.090;5.244;2023-02-20T03:10:21;102302.0;;;11.51;63.8
61676;BME280;47574;52.090;5.244;2023-02-20T03:16:00;102299.0;;;11.16;65.02
61676;BME280;47574;52.090;5.244;2023-02-20T03:17:38;102302.0;;;11.63;63.56
61676;BME280;47574;52.090;5.244;2023-02-20T03:19:22;102305.0;;;11.69;63.36
61676;BME280;47574;52.090;5.244;2023-02-20T03:21:10;102295.0;;;11.36;64.23
61676;BME280;47574;52.090;5.244;2023-02-20T03:22:54;102292.0;;;11.38;64.5
61676;BME280;47574;52.090;5.244;2023-02-20T03:26:36;102296.0;;;11.53;64.02
61676;BME280;47574;52.090;5.244;2023-02-20T03:28:17;102298.0;;;11.37;64.7
61676;BME280;47574;52.090;5.244;2023-02-20T03:29:58;102289.0;;;11.17;65.31
61676;BME280;47574;52.090;5.244;2023-02-20T03:31:38;102291.0;;;11.65;63.71
61676;BME280;47574;52.090;5.244;2023-02-20T03:44:25;102286.0;;;11.58;64.06
61676;BME280;47574;52.090;5.244;2023-02-20T03:46:06;102284.0;;;11.54;64.35
61676;BME280;47574;52.090;5.244;2023-02-20T03:47:47;102277.0;;;11.35;64.81
61676;BME280;47574;52.090;5.244;2023-02-20T03:52:53;102283.0;;;11.62;64.27
61676;BME280;47574;52.090;5.244;2023-02-20T03:54:31;102273.0;;;11.76;63.89
61676;BME280;47574;52.090;5.244;2023-02-20T03:56:16;102276.0;;;11.46;64.63
61676;BME280;47574;52.090;5.244;2023-02-20T03:59:39;102268.0;;;11.85;63.72
61676;BME280;47574;52.090;5.244;2023-02-20T04:01:19;102266.0;;;11.3;64.95
61676;BME280;47574;52.090;5.244;2023-02-20T04:03:01;102262.0;;;11.56;64.58
61676;BME280;47574;52.090;5.244;2023-02-20T04:04:45;102257.0;;;11.81;63.92
61676;BME280;47574;52.090;5.244;2023-02-20T04:08:09;102261.0;;;12.0;63.27
61676;BME280;47574;52.090;5.244;2023-02-20T04:09:48;102261.0;;;11.63;64.3
61676;BME280;47574;52.090;5.244;2023-02-20T04:11:30;102260.0;;;11.68;64.27
61676;BME280;47574;52.090;5.244;2023-02-20T04:13:10;102259.0;;;11.53;64.59
61676;BME280;47574;52.090;5.244;2023-02-20T04:16:31;102259.0;;;11.92;63.6
61676;BME280;47574;52.090;5.244;2023-02-20T04:18:14;102258.0;;;11.52;64.62
61676;BME280;47574;52.090;5.244;2023-02-20T04:19:51;102265.0;;;11.73;64.2
61676;BME280;47574;52.090;5.244;2023-02-20T04:21:34;102260.0;;;11.74;64.03
61676;BME280;47574;52.090;5.244;2023-02-20T04:24:57;102258.0;;;11.55;64.69
61676;BME280;47574;52.090;5.244;2023-02-20T04:26:36;102264.0;;;11.95;63.59
61676;BME280;47574;52.090;5.244;2023-02-20T04:28:14;102260.0;;;12.0;63.29
61676;BME280;47574;52.090;5.244;2023-02-20T04:29:51;102258.0;;;11.64;64.19
61676;BME280;47574;52.090;5.244;2023-02-20T04:33:05;102256.0;;;11.96;63.51
61676;BME280;47574;52.090;5.244;2023-02-20T04:34:45;102257.0;;;12.09;63.12
61676;BME280;47574;52.090;5.244;2023-02-20T04:36:23;102263.0;;;11.96;63.38
61676;BME280;47574;52.090;5.244;2023-02-20T04:38:00;102260.0;;;12.03;63.26
61676;BME280;47574;52.090;5.244;2023-02-20T04:41:14;102255.0;;;11.76;64.03
61676;BME280;47574;52.090;5.244;2023-02-20T04:42:51;102257.0;;;11.62;64.48
61676;BME280;47574;52.090;5.244;2023-02-20T04:44:31;102258.0;;;11.88;63.88
61676;BME280;47574;52.090;5.244;2023-02-20T04:47:46;102260.0;;;11.65;64.47
61676;BME280;47574;52.090;5.244;2023-02-20T04:49:22;102253.0;;;11.7;64.58
61676;BME280;47574;52.090;5.244;2023-02-20T04:50:59;102255.0;;;11.79;64.27
61676;BME280;47574;52.090;5.244;2023-02-20T04:52:37;102253.0;;;11.88;63.92
61676;BME280;47574;52.090;5.244;2023-02-20T04:55:51;102262.0;;;11.97;63.64
61676;BME280;47574;52.090;5.244;2023-02-20T04:57:28;102255.0;;;11.88;63.76
61676;BME280;47574;52.090;5.244;2023-02-20T04:59:04;102246.0;;;12.15;63.23
61676;BME280;47574;52.090;5.244;2023-02-20T05:02:20;102255.0;;;11.97;63.63
61676;BME280;47574;52.090;5.244;2023-02-20T05:03:57;102251.0;;;11.58;64.86
61676;BME280;47574;52.090;5.244;2023-02-20T05:05:34;102252.0;;;12.16;63.2
61676;BME280;47574;52.090;5.244;2023-02-20T05:08:47;102255.0;;;12.16;63.09
61676;BME280;47574;52.090;5.244;2023-02-20T05:10:25;102252.0;;;12.43;62.09
61676;BME280;47574;52.090;5.244;2023-02-20T05:12:03;102258.0;;;12.12;62.88
61676;BME280;47574;52.090;5.244;2023-02-20T05:13:40;102253.0;;;11.93;63.46
61676;BME280;47574;52.090;5.244;2023-02-20T05:16:55;102252.0;;;11.82;64.03
61676;BME280;47574;52.090;5.244;2023-02-20T05:18:32;102256.0;;;12.18;62.88
61676;BME280;47574;52.090;5.244;2023-02-20T05:20:15;102256.0;;;11.95;63.53
61676;BME280;47574;52.090;5.244;2023-02-20T05:22:23;102252.0;;;12.05;63.33
61676;BME280;47574;52.090;5.244;2023-02-20T05:23:59;102251.0;;;12.06;63.12
61676;BME280;47574;52.090;5.244;2023-02-20T05:27:15;102253.0;;;12.1;63.16
61676;BME280;47574;52.090;5.244;2023-02-20T05:28:53;102259.0;;;12.38;62.37
61676;BME280;47574;52.090;5.244;2023-02-20T05:30:30;102255.0;;;12.22;62.67
61676;BME280;47574;52.090;5.244;2023-02-20T05:33:43;102256.0;;;12.36;62.15
61676;BME280;47574;52.090;5.244;2023-02-20T05:35:20;102256.0;;;12.15;62.78
61676;BME280;47574;52.090;5.244;2023-02-20T05:36:58;102261.0;;;12.14;62.98
61676;BME280;47574;52.090;5.244;2023-02-20T05:40:11;102258.0;;;12.32;62.32
61676;BME280;47574;52.090;5.244;2023-02-20T05:41:48;102257.0;;;12.28;62.39
61676;BME280;47574;52.090;5.244;2023-02-20T05:43:24;102253.0;;;12.36;62.33
61676;BME280;47574;52.090;5.244;2023-02-20T05:45:01;102255.0;;;12.22;62.79
61676;BME280;47574;52.090;5.244;2023-02-20T05:48:17;102253.0;;;12.24;62.55
61676;BME280;47574;52.090;5.244;2023-02-20T05:49:54;102250.0;;;12.59;61.7
61676;BME280;47574;52.090;5.244;2023-02-20T05:51:31;102256.0;;;12.21;62.6
61676;BME280;47574;52.090;5.244;2023-02-20T05:54:45;102253.0;;;12.25;62.37
61676;BME280;47574;52.090;5.244;2023-02-20T05:56:22;102255.0;;;12.11;62.72
61676;BME280;47574;52.090;5.244;2023-02-20T05:57:58;102247.0;;;12.04;62.92
61676;BME280;47574;52.090;5.244;2023-02-20T05:59:36;102245.0;;;12.23;62.65
61676;BME280;47574;52.090;5.244;2023-02-20T06:02:53;102241.0;;;12.58;61.74
61676;BME280;47574;52.090;5.244;2023-02-20T06:04:29;102245.0;;;12.46;61.81
61676;BME280;47574;52.090;5.244;2023-02-20T06:06:06;102250.0;;;12.3;62.16
61676;BME280;47574;52.090;5.244;2023-02-20T06:09:20;102245.0;;;12.39;62.01
61676;BME280;47574;52.090;5.244;2023-02-20T06:10:56;102245.0;;;12.26;62.29
61676;BME280;47574;52.090;5.244;2023-02-20T06:12:33;102233.0;;;12.34;62.11
61676;BME280;47574;52.090;5.244;2023-02-20T06:14:10;102237.0;;;12.12;62.74
61676;BME280;47574;52.090;5.244;2023-02-20T06:17:24;102232.0;;;12.06;62.79
61676;BME280;47574;52.090;5.244;2023-02-20T06:19:00;102244.0;;;11.84;63.45
61676;BME280;47574;52.090;5.244;2023-02-20T06:20:37;102241.0;;;12.35;62.14
61676;BME280;47574;52.090;5.244;2023-02-20T06:23:52;102250.0;;;12.1;62.67
61676;BME280;47574;52.090;5.244;2023-02-20T06:25:29;102245.0;;;11.99;63.07
61676;BME280;47574;52.090;5.244;2023-02-20T06:27:07;102239.0;;;12.24;62.34
61676;BME280;47574;52.090;5.244;2023-02-20T06:30:20;102237.0;;;12.34;62.12
61676;BME280;47574;52.090;5.244;2023-02-20T06:31:57;102245.0;;;12.21;62.28
61676;BME280;47574;52.090;5.244;2023-02-20T06:33:34;102243.0;;;12.39;61.97
61676;BME280;47574;52.090;5.244;2023-02-20T06:35:11;102246.0;;;12.16;62.7
61676;BME280;47574;52.090;5.244;2023-02-20T06:38:26;102242.0;;;12.51;61.59
61676;BME280;47574;52.090;5.244;2023-02-20T06:40:04;102240.0;;;12.07;62.68
61676;BME280;47574;52.090;5.244;2023-02-20T06:41:41;102249.0;;;12.1;62.68
61676;BME280;47574;52.090;5.244;2023-02-20T06:44:56;102245.0;;;12.7;61.02
61676;BME280;47574;52.090;5.244;2023-02-20T06:46:32;102252.0;;;12.18;62.28
61676;BME280;47574;52.090;5.244;2023-02-20T06:48:09;102250.0;;;12.26;62.29
61676;BME280;47574;52.090;5.244;2023-02-20T06:49:48;102258.0;;;12.02;62.95
61676;BME280;47574;52.090;5.244;2023-02-20T06:53:03;102248.0;;;12.13;62.76
61676;BME280;47574;52.090;5.244;2023-02-20T06:54:41;102250.0;;;12.08;62.55
61676;BME280;47574;52.090;5.244;2023-02-20T06:56:22;102248.0;;;11.91;63.16
61676;BME280;47574;52.090;5.244;2023-02-20T06:59:43;102247.0;;;12.06;62.92
61676;BME280;47574;52.090;5.244;2023-02-20T07:01:21;102257.0;;;12.3;62.24
61676;BME280;47574;52.090;5.244;2023-02-20T07:02:59;102251.0;;;12.12;62.63
61676;BME280;47574;52.090;5.244;2023-02-20T07:04:36;102247.0;;;12.4;61.84
61676;BME280;47574;52.090;5.244;2023-02-20T07:07:50;102247.0;;;11.82;63.5
61676;BME280;47574;52.090;5.244;2023-02-20T07:09:28;102247.0;;;11.84;63.66
61676;BME280;47574;52.090;5.244;2023-02-20T07:11:05;102242.0;;;11.73;63.78
61676;BME280;47574;52.090;5.244;2023-02-20T07:14:18;102253.0;;;11.67;64.19
61676;BME280;47574;52.090;5.244;2023-02-20T07:15:55;102255.0;;;11.82;63.83
61676;BME280;47574;52.090;5.244;2023-02-20T07:19:10;102251.0;;;11.76;63.98
61676;BME280;47574;52.090;5.244;2023-02-20T07:22:26;102251.0;;;12.07;63.23
61676;BME280;47574;52.090;5.244;2023-02-20T07:24:04;102261.0;;;11.95;63.45
61676;BME280;47574;52.090;5.244;2023-02-20T07:25:42;102250.0;;;11.74;63.93
61676;BME280;47574;52.090;5.244;2023-02-20T07:28:58;102257.0;;;12.03;63.16
61676;BME280;47574;52.090;5.244;2023-02-20T07:30:34;102257.0;;;12.2;62.68
61676;BME280;47574;52.090;5.244;2023-02-20T07:32:11;102259.0;;;12.46;62.16
61676;BME280;47574;52.090;5.244;2023-02-20T07:33:49;102264.0;;;12.0;63.26
61676;BME280;47574;52.090;5.244;2023-02-20T07:37:02;102257.0;;;12.26;62.7
61676;BME280;47574;52.090;5.244;2023-02-20T07:38:39;102255.0;;;12.13;62.95
61676;BME280;47574;52.090;5.244;2023-02-20T07:40:16;102256.0;;;12.1;63.06
61676;BME280;47574;52.090;5.244;2023-02-20T07:43:32;102252.0;;;12.64;61.86
61676;BME280;47574;52.090;5.244;2023-02-20T07:45:09;102263.0;;;12.03;63.18
61676;BME280;47574;52.090;5.244;2023-02-20T07:46:46;102260.0;;;11.98;63.71
61676;BME280;47574;52.090;5.244;2023-02-20T07:48:22;102261.0;;;12.14;63.37
61676;BME280;47574;52.090;5.244;2023-02-20T07:51:35;102258.0;;;12.28;62.81
61676;BME280;47574;52.090;5.244;2023-02-20T07:53:13;102265.0;;;12.36;62.75
61676;BME280;47574;52.090;5.244;2023-02-20T07:54:51;102269.0;;;11.74;64.39
61676;BME280;47574;52.090;5.244;2023-02-20T07:58:04;102269.0;;;12.34;62.96
61676;BME280;47574;52.090;5.244;2023-02-20T07:59:41;102271.0;;;12.27;62.91
61676;BME280;47574;52.090;5.244;2023-02-20T08:01:18;102263.0;;;12.44;62.65
61676;BME280;47574;52.090;5.244;2023-02-20T08:04:31;102258.0;;;12.56;62.34
61676;BME280;47574;52.090;5.244;2023-02-20T08:06:07;102253.0;;;12.74;61.83
61676;BME280;47574;52.090;5.244;2023-02-20T08:07:44;102255.0;;;12.12;63.33
61676;BME280;47574;52.090;5.244;2023-02-20T08:09:20;102259.0;;;12.55;62.64
61676;BME280;47574;52.090;5.244;2023-02-20T08:12:34;102256.0;;;12.35;62.87
61676;BME280;47574;52.090;5.244;2023-02-20T08:14:12;102247.0;;;12.13;63.43
61676;BME280;47574;52.090;5.244;2023-02-20T08:15:49;102261.0;;;11.94;64.19
61676;BME280;47574;52.090;5.244;2023-02-20T08:19:01;102250.0;;;12.5;62.84
61676;BME280;47574;52.090;5.244;2023-02-20T08:20:38;102255.0;;;12.48;62.9
61676;BME280;47574;52.090;5.244;2023-02-20T08:22:14;102256.0;;;12.59;62.6
61676;BME280;47574;52.090;5.244;2023-02-20T08:25:27;102249.0;;;12.63;62.39
61676;BME280;47574;52.090;5.244;2023-02-20T08:27:04;102257.0;;;12.37;63.27
61676;BME280;47574;52.090;5.244;2023-02-20T08:28:40;102257.0;;;12.36;63.32
61676;BME280;47574;52.090;5.244;2023-02-20T08:30:20;102251.0;;;12.46;63.07
61676;BME280;47574;52.090;5.244;2023-02-20T08:33:34;102261.0;;;12.55;62.79
61676;BME280;47574;52.090;5.244;2023-02-20T08:35:11;102256.0;;;12.89;61.96
61676;BME280;47574;52.090;5.244;2023-02-20T08:36:47;102251.0;;;12.78;62.17
61676;BME280;47574;52.090;5.244;2023-02-20T08:40:07;102259.0;;;12.22;63.79
61676;BME280;47574;52.090;5.244;2023-02-20T08:41:46;102256.0;;;12.3;63.6
61676;BME280;47574;52.090;5.244;2023-02-20T08:43:23;102248.0;;;12.39;63.25
61676;BME280;47574;52.090;5.244;2023-02-20T08:44:59;102245.0;;;12.53;63.09
61676;BME280;47574;52.090;5.244;2023-02-20T08:48:12;102248.0;;;12.07;64.42
61676;BME280;47574;52.090;5.244;2023-02-20T08:49:48;102245.0;;;12.46;63.45
61676;BME280;47574;52.090;5.244;2023-02-20T08:51:25;102242.0;;;12.49;63.46
61676;BME280;47574;52.090;5.244;2023-02-20T08:54:37;102242.0;;;12.32;63.9
61676;BME280;47574;52.090;5.244;2023-02-20T08:56:17;102243.0;;;12.55;63.25
61676;BME280;47574;52.090;5.244;2023-02-20T08:57:55;102245.0;;;12.29;64.08
61676;BME280;47574;52.090;5.244;2023-02-20T08:59:31;102243.0;;;12.32;63.9
61676;BME280;47574;52.090;5.244;2023-02-20T09:02:45;102240.0;;;12.22;64.41
61676;BME280;47574;52.090;5.244;2023-02-20T09:04:23;102252.0;;;12.3;64.16
61676;BME280;47574;52.090;5.244;2023-02-20T09:06:00;102255.0;;;12.18;64.53
61676;BME280;47574;52.090;5.244;2023-02-20T09:09:12;102241.0;;;12.7;62.87
61676;BME280;47574;52.090;5.244;2023-02-20T09:10:48;102236.0;;;12.38;64.0
61676;BME280;47574;52.090;5.244;2023-02-20T09:12:24;102233.0;;;12.49;63.78
61676;BME280;47574;52.090;5.244;2023-02-20T09:15:38;102230.0;;;12.49;63.77
61676;BME280;47574;52.090;5.244;2023-02-20T09:17:15;102238.0;;;12.46;63.84
61676;BME280;47574;52.090;5.244;2023-02-20T09:18:54;102234.0;;;12.58;63.56
61676;BME280;47574;52.090;5.244;2023-02-20T09:20:31;102241.0;;;12.31;64.23
61676;BME280;47574;52.090;5.244;2023-02-20T09:23:44;102238.0;;;12.63;63.36
61676;BME280;47574;52.090;5.244;2023-02-20T09:25:21;102236.0;;;13.11;62.09
61676;BME280;47574;52.090;5.244;2023-02-20T09:26:57;102231.0;;;13.08;61.83
61676;BME280;47574;52.090;5.244;2023-02-20T09:30:14;102235.0;;;12.77;62.74
61676;BME280;47574;52.090;5.244;2023-02-20T09:31:52;102228.0;;;12.98;62.37
61676;BME280;47574;52.090;5.244;2023-02-20T09:33:29;102241.0;;;12.45;63.7
61676;BME280;47574;52.090;5.244;2023-02-20T09:35:05;102246.0;;;12.74;62.86
61676;BME280;47574;52.090;5.244;2023-02-20T09:38:17;102242.0;;;12.86;62.6
61676;BME280;47574;52.090;5.244;2023-02-20T09:39:53;102235.0;;;12.78;62.7
61676;BME280;47574;52.090;5.244;2023-02-20T09:41:40;102242.0;;;12.73;63.02
61676;BME280;47574;52.090;5.244;2023-02-20T09:45:19;102241.0;;;13.21;61.6
61676;BME280;47574;52.090;5.244;2023-02-20T09:47:02;102250.0;;;12.86;62.49
61676;BME280;47574;52.090;5.244;2023-02-20T09:48:52;102250.0;;;12.92;62.31
61676;BME280;47574;52.090;5.244;2023-02-20T09:50:48;102248.0;;;12.71;62.93
61676;BME280;47574;52.090;5.244;2023-02-20T09:52:28;102258.0;;;12.72;63.04
61676;BME280;47574;52.090;5.244;2023-02-20T09:54:07;102253.0;;;13.16;61.83
61676;BME280;47574;52.090;5.244;2023-02-20T09:57:26;102260.0;;;12.89;62.28
61676;BME280;47574;52.090;5.244;2023-02-20T09:59:07;102265.0;;;12.64;63.07
61676;BME280;47574;52.090;5.244;2023-02-20T10:00:49;102259.0;;;12.87;62.52
61676;BME280;47574;52.090;5.244;2023-02-20T10:02:29;102244.0;;;13.29;61.45
61676;BME280;47574;52.090;5.244;2023-02-20T10:05:49;102248.0;;;13.08;61.93
61676;BME280;47574;52.090;5.244;2023-02-20T10:07:27;102241.0;;;12.97;62.12
61676;BME280;47574;52.090;5.244;2023-02-20T10:09:09;102230.0;;;13.17;61.82
61676;BME280;47574;52.090;5.244;2023-02-20T10:10:49;102235.0;;;13.06;61.89
61676;BME280;47574;52.090;5.244;2023-02-20T10:14:32;102240.0;;;12.62;63.09
61676;BME280;47574;52.090;5.244;2023-02-20T10:16:18;102232.0;;;13.16;61.87
61676;BME280;47574;52.090;5.244;2023-02-20T10:18:08;102234.0;;;13.13;61.87
61676;BME280;47574;52.090;5.244;2023-02-20T10:19:55;102241.0;;;12.81;62.76
61676;BME280;47574;52.090;5.244;2023-02-20T10:21:45;102239.0;;;13.24;61.53
61676;BME280;47574;52.090;5.244;2023-02-20T10:23:34;102256.0;;;12.68;62.65
61676;BME280;47574;52.090;5.244;2023-02-20T10:25:23;102238.0;;;13.0;62.05
61676;BME280;47574;52.090;5.244;2023-02-20T10:29:08;102252.0;;;13.3;61.32
61676;BME280;47574;52.090;5.244;2023-02-20T10:30:55;102242.0;;;12.99;61.81
61676;BME280;47574;52.090;5.244;2023-02-20T10:32:38;102255.0;;;12.85;62.61
61676;BME280;47574;52.090;5.244;2023-02-20T10:34:22;102239.0;;;13.3;61.47
61676;BME280;47574;52.090;5.244;2023-02-20T10:36:09;102240.0;;;13.16;61.68
61676;BME280;47574;52.090;5.244;2023-02-20T10:37:51;102243.0;;;12.87;62.33
61676;BME280;47574;52.090;5.244;2023-02-20T10:41:15;102251.0;;;12.87;62.29
61676;BME280;47574;52.090;5.244;2023-02-20T10:43:00;102252.0;;;12.87;62.29
61676;BME280;47574;52.090;5.244;2023-02-20T10:44:45;102241.0;;;12.72;62.84
61676;BME280;47574;52.090;5.244;2023-02-20T10:46:28;102218.0;;;12.59;63.16
61676;BME280;47574;52.090;5.244;2023-02-20T10:49:51;102220.0;;;12.78;62.75
61676;BME280;47574;52.090;5.244;2023-02-20T10:51:36;102237.0;;;12.85;62.21
61676;BME280;47574;52.090;5.244;2023-02-20T10:53:20;102238.0;;;13.27;61.37
61676;BME280;47574;52.090;5.244;2023-02-20T10:55:05;102228.0;;;13.27;61.17
61676;BME280;47574;52.090;5.244;2023-02-20T10:56:51;102225.0;;;13.1;61.63
61676;BME280;47574;52.090;5.244;2023-02-20T11:00:21;102230.0;;;12.67;62.74
61676;BME280;47574;52.090;5.244;2023-02-20T11:01:59;102237.0;;;12.7;62.79
61676;BME280;47574;52.090;5.244;2023-02-20T11:03:43;102238.0;;;12.7;62.81
61676;BME280;47574;52.090;5.244;2023-02-20T11:05:24;102257.0;;;12.86;62.26
61676;BME280;47574;52.090;5.244;2023-02-20T11:07:07;102244.0;;;13.04;61.8
61676;BME280;47574;52.090;5.244;2023-02-20T11:10:23;102230.0;;;13.08;61.7
61676;BME280;47574;52.090;5.244;2023-02-20T11:12:01;102215.0;;;12.94;61.95
61676;BME280;47574;52.090;5.244;2023-02-20T11:13:37;102212.0;;;12.73;62.45
61676;BME280;47574;52.090;5.244;2023-02-20T11:16:57;102221.0;;;13.14;61.43
61676;BME280;47574;52.090;5.244;2023-02-20T11:18:37;102239.0;;;13.4;60.65
61676;BME280;47574;52.090;5.244;2023-02-20T11:20:44;102236.0;;;12.94;62.02